WetterOnline ( https://www.wetteronline.de )

Wetter aktuell Heinrichsegen

Aktuelles Wetter: Gießen (195m)

6-stündlich | Neueste Meldungen
Ortszeit Temperatur Wetter
Sa, 15.06. 20:00 18.5° C wolkig
Sa, 15.06. 14:00 17.9° C bewölkt
Sa, 15.06. 8:00 14.0° C leichter Regen
Sa, 15.06. 2:00 15.4° C bedeckt
Fr, 14.06. 20:00 17.4° C bedeckt
Fr, 14.06. 14:00 15.5° C bedeckt
Fr, 14.06. 8:00 12.1° C bewölkt
Fr, 14.06. 2:00 11.7° C bedeckt
Ortszeit Temperatur Wetter
So, 16.06. 1:00 12.8° C wolkig
So, 16.06. 0:40 12.8° C bedeckt
So, 16.06. 0:30 13.4° C bedeckt
So, 16.06. 0:20 13.4° C bedeckt
So, 16.06. 0:10 13.4° C bedeckt
So, 16.06. 0:00 13.8° C wolkig
Sa, 15.06. 23:50 13.8° C wolkig
Sa, 15.06. 23:30 14.8° C bedeckt
Sa, 15.06. 23:00 14.7° C wolkig
Sa, 15.06. 22:30 14.3° C wolkig
Sa, 15.06. 22:00 15.0° C wolkig
Ortszeit Relative Feuchte Sichtweite
Sa, 15.06. 20:00 43% 45 km
Sa, 15.06. 14:00 53% 60 km
Sa, 15.06. 8:00 91% 30 km
Sa, 15.06. 2:00 88% 35 km
Fr, 14.06. 20:00 75% 60 km
Fr, 14.06. 14:00 73% 40 km
Fr, 14.06. 8:00 79% 40 km
Fr, 14.06. 2:00 72% 50 km
Ortszeit Relative Feuchte Sichtweite
So, 16.06. 1:00 74% 55 km
So, 16.06. 0:40 74% -
So, 16.06. 0:30 70% 60 km
So, 16.06. 0:20 70% -
So, 16.06. 0:10 71% -
So, 16.06. 0:00 67% 45 km
Sa, 15.06. 23:50 67% -
Sa, 15.06. 23:30 60% 55 km
Sa, 15.06. 23:00 62% 55 km
Sa, 15.06. 22:30 64% 45 km
Sa, 15.06. 22:00 57% 55 km
Ortszeit Niederschlagsmenge Niederschlagsart
Sa, 15.06. 20:00 0.1 l/m2 in 12 Std. -
Sa, 15.06. 14:00 0.1 l/m2 in 6 Std. Regen
Sa, 15.06. 8:00 5 l/m2 in 12 Std. Regen
Sa, 15.06. 2:00 0.1 l/m2 in 6 Std. Regen
Fr, 14.06. 20:00 0.1 l/m2 in 12 Std. -
Fr, 14.06. 14:00 0.1 l/m2 in 6 Std. Regen
Fr, 14.06. 8:00 0.1 l/m2 in 12 Std. Regen
Fr, 14.06. 2:00 0.0 l/m2 in 6 Std. -
Ortszeit Niederschlagsmenge Niederschlagsart
So, 16.06. 1:00 0.0 l/m2 in 1 Std. -
So, 16.06. 0:40 keine Meldung -
So, 16.06. 0:30 0.0 l/m2 in 30 Min -
So, 16.06. 0:20 keine Meldung -
So, 16.06. 0:10 keine Meldung -
So, 16.06. 0:00 0.0 l/m2 in 1 Std. -
Sa, 15.06. 23:50 keine Meldung -
Sa, 15.06. 23:30 0.0 l/m2 in 30 Min -
Sa, 15.06. 23:00 0.0 l/m2 in 1 Std. -
Sa, 15.06. 22:30 0.0 l/m2 in 30 Min -
Sa, 15.06. 22:00 0.0 l/m2 in 1 Std. -
Ortszeit Stärke Spitze Richtung
km/h Bft. km/h Grad Sektor
Sa, 15.06. 20:00 22 4 47 220° SW
Sa, 15.06. 14:00 22 4 65 240° SW
Sa, 15.06. 8:00 18 3 36 190° S
Sa, 15.06. 2:00 6 1 26 140° SO
Fr, 14.06. 20:00 13 3 33 140° SO
Fr, 14.06. 14:00 22 4 40 170° S
Fr, 14.06. 8:00 4 1 14 50° NO
Fr, 14.06. 2:00 6 1 11 30° NO
Ortszeit Stärke Spitze Richtung
km/h Bft. km/h Grad Sektor
So, 16.06. 1:00 7 2 11 240° SW
So, 16.06. 0:40 7 2 - 220° SW
So, 16.06. 0:30 6 1 9 230° SW
So, 16.06. 0:20 6 1 - 230° SW
So, 16.06. 0:10 7 2 - 210° SW
So, 16.06. 0:00 7 2 13 190° S
Sa, 15.06. 23:50 7 2 - 190° S
Sa, 15.06. 23:30 7 2 14 170° S
Sa, 15.06. 23:00 7 2 14 190° S
Sa, 15.06. 22:30 7 2 14 210° SW
Sa, 15.06. 22:00 13 3 28 220° SW
Ortszeit Untergrenze Bedeckung Gattung
total tief tief mittel hoch
Sa, 15.06. 20:00 2400 m 5/8 5/8 - - -
Sa, 15.06. 14:00 1500 m 7/8 7/8 - - -
Sa, 15.06. 8:00 900 m 8/8 8/8 - - -
Sa, 15.06. 2:00 3000 m 8/8 8/8 - - -
Fr, 14.06. 20:00 780 m 8/8 8/8 - - -
Fr, 14.06. 14:00 810 m 8/8 8/8 - - -
Fr, 14.06. 8:00 1800 m 7/8 7/8 - - -
Fr, 14.06. 2:00 4500 m 8/8 8/8 - - -
Ortszeit Bedeckungsgrad in Achtel und Wolkenuntergrenze
So, 16.06. 1:00 2(1800m) 8(3000m)
So, 16.06. 0:40 8
So, 16.06. 0:30 8(3000m)
So, 16.06. 0:20 8(3000m)
So, 16.06. 0:10 8
So, 16.06. 0:00 1(1800m) 8(3000m)
Sa, 15.06. 23:50 1(1800m) 8(3000m)
Sa, 15.06. 23:30 8(3000m)
Sa, 15.06. 23:00 2(2400m) 8(3300m) 8(7800m)
Sa, 15.06. 22:30 2(2400m) 8(3000m)
Sa, 15.06. 22:00 5(2400m) 5(3000m)
Ortszeit Luftdruck NN (hPa) Tendenz (hPa in 3 Std.)
Sa, 15.06. 20:00 1008 + 0,3
Sa, 15.06. 14:00 1008 + 1,1
Sa, 15.06. 8:00 1005 + 1,4
Sa, 15.06. 2:00 1005 - 2,5
Fr, 14.06. 20:00 1008 - 1,6
Fr, 14.06. 14:00 1011 - 0,3
Fr, 14.06. 8:00 1012 - 0,7
Fr, 14.06. 2:00 1014 - 1,2
Ortszeit Luftdruck NN (hPa) Tendenz (hPa in 3 Std.)
So, 16.06. 1:00 1010 + 1,1
So, 16.06. 0:40 1010 keine Meldung
So, 16.06. 0:30 1010 + 1,1
So, 16.06. 0:20 1010 keine Meldung
So, 16.06. 0:10 1010 keine Meldung
So, 16.06. 0:00 1010 + 1,2
Sa, 15.06. 23:50 1010 keine Meldung
Sa, 15.06. 23:30 1010 + 1,1
Sa, 15.06. 23:00 1009 + 1,0
Sa, 15.06. 22:30 1009 + 1,0
Sa, 15.06. 22:00 1009 + 0,7
Ortszeit Schneehöhe (cm)
Sa, 15.06. 20:00 0
Sa, 15.06. 14:00 0
Sa, 15.06. 8:00 0
Sa, 15.06. 2:00 0
Fr, 14.06. 20:00 0
Fr, 14.06. 14:00 0
Fr, 14.06. 8:00 0
Fr, 14.06. 2:00 0
Ortszeit Schneehöhe (cm)
So, 16.06. 1:00 0
So, 16.06. 0:40 -
So, 16.06. 0:30 0
So, 16.06. 0:20 0
So, 16.06. 0:10 -
So, 16.06. 0:00 0
Sa, 15.06. 23:50 0
Sa, 15.06. 23:30 0
Sa, 15.06. 23:00 0
Sa, 15.06. 22:30 0
Sa, 15.06. 22:00 0
Link zu dieser Seite / Seite empfehlen

Das Wetter in ...